Time;durP1;ratioP1;P1;durP2;ratioP2;P2;SDS_P1;SDS_P2;PMS_P1;PMS_P2;Temp;Humidity;BMP_temperature;BMP_pressure;BME280_temperature;BME280_humidity;BME280_pressure;Samples;Min_cycle;Max_cycle;Signal;HPM_P1;HPM_P2
2024/01/17 00:01:25;;;;;;;25.17;12.15;;;-2.10;97.30;;;;;;4994370;28;20010;-76
2024/01/17 00:03:51;;;;;;;21.42;11.55;;;-2.00;97.50;;;;;;5022180;28;20037;-77
2024/01/17 00:06:17;;;;;;;20.92;10.70;;;-2.10;97.20;;;;;;4989016;28;20038;-76
2024/01/17 00:08:43;;;;;;;21.95;11.57;;;-2.00;97.10;;;;;;5014602;28;20352;-77
2024/01/17 00:11:08;;;;;;;18.92;10.70;;;-2.10;97.10;;;;;;4991777;28;20045;-76
2024/01/17 00:13:34;;;;;;;18.55;10.40;;;-2.20;97.00;;;;;;4991171;28;20097;-76
2024/01/17 00:16:00;;;;;;;24.08;11.48;;;-2.20;97.40;;;;;;4992085;28;20025;-76
2024/01/17 00:18:26;;;;;;;24.23;11.75;;;-2.20;97.30;;;;;;4968192;28;20057;-78
2024/01/17 00:20:52;;;;;;;22.20;11.45;;;-2.30;97.40;;;;;;5009062;28;20030;-77
2024/01/17 00:23:17;;;;;;;23.20;11.68;;;-2.20;97.60;;;;;;4996844;28;20057;-78
2024/01/17 00:25:55;;;;;;;23.70;12.25;;;-2.20;97.80;;;;;;5028212;28;20030;-77
2024/01/17 00:28:21;;;;;;;22.38;11.00;;;-2.20;97.60;;;;;;5029555;28;20260;-76
2024/01/17 00:30:50;;;;;;;19.58;11.30;;;-2.10;97.80;;;;;;5027633;28;20037;-76
2024/01/17 00:33:15;;;;;;;21.48;11.05;;;-2.10;97.60;;;;;;5008226;28;20037;-76
2024/01/17 00:35:41;;;;;;;21.20;12.07;;;-2.10;97.50;;;;;;4991886;28;20022;-76
2024/01/17 00:38:07;;;;;;;18.15;10.77;;;-2.10;97.40;;;;;;5008619;28;20277;-77
2024/01/17 00:40:33;;;;;;;18.60;11.23;;;-2.10;97.30;;;;;;5007851;28;20049;-77
2024/01/17 00:42:59;;;;;;;18.95;11.45;;;-2.10;97.20;;;;;;5014103;28;20030;-76
2024/01/17 00:45:24;;;;;;;20.60;11.55;;;-2.10;97.00;;;;;;5009798;28;20062;-77
2024/01/17 00:47:56;;;;;;;18.90;11.15;;;-2.10;97.20;;;;;;5013223;28;20034;-76
2024/01/17 00:50:29;;;;;;;20.30;11.40;;;-2.10;97.10;;;;;;4992298;28;20181;-76
2024/01/17 00:52:54;;;;;;;20.92;11.13;;;-2.20;97.20;;;;;;5010038;28;20038;-77
2024/01/17 00:55:20;;;;;;;19.80;10.55;;;-2.20;97.20;;;;;;5009396;28;20049;-76
2024/01/17 00:57:46;;;;;;;23.30;12.10;;;-2.20;97.50;;;;;;5009449;28;20186;-77
2024/01/17 01:00:12;;;;;;;20.58;11.13;;;-2.20;97.50;;;;;;4989411;28;20233;-77
2024/01/17 01:02:37;;;;;;;21.17;11.80;;;-2.10;97.60;;;;;;5028853;28;20260;-76
2024/01/17 01:05:04;;;;;;;20.08;10.95;;;-2.10;97.20;;;;;;5010024;28;20042;-76
2024/01/17 01:07:29;;;;;;;21.65;11.15;;;-2.10;97.10;;;;;;5023262;28;20056;-78
2024/01/17 01:09:55;;;;;;;21.17;11.45;;;-2.10;97.20;;;;;;5029906;28;20256;-76
2024/01/17 01:12:21;;;;;;;19.42;10.93;;;-2.10;97.20;;;;;;5029706;28;20018;-75
2024/01/17 01:14:47;;;;;;;20.38;10.85;;;-2.10;97.20;;;;;;5011308;28;20026;-78
2024/01/17 01:17:12;;;;;;;22.20;11.45;;;-2.00;97.20;;;;;;5028846;28;20045;-77
2024/01/17 01:19:38;;;;;;;21.90;11.80;;;-2.00;97.20;;;;;;5029000;28;20030;-77
2024/01/17 01:22:04;;;;;;;17.45;10.48;;;-1.90;97.00;;;;;;5025739;28;20033;-76
2024/01/17 01:24:29;;;;;;;21.23;10.95;;;-1.90;96.70;;;;;;5018758;28;20228;-77
2024/01/17 01:26:55;;;;;;;21.00;10.77;;;-1.80;96.70;;;;;;5006693;28;20022;-76
2024/01/17 01:29:21;;;;;;;21.05;11.55;;;-1.80;96.50;;;;;;4988708;28;20367;-75
2024/01/17 01:31:46;;;;;;;20.15;10.90;;;-1.80;96.40;;;;;;5005413;28;20057;-75
2024/01/17 01:34:12;;;;;;;20.60;11.75;;;-1.80;96.20;;;;;;4972438;28;20045;-76
2024/01/17 01:36:38;;;;;;;20.67;11.00;;;-1.90;96.30;;;;;;4987999;28;20077;-76
2024/01/17 01:39:03;;;;;;;22.27;11.18;;;-1.90;96.40;;;;;;5005635;28;20042;-76
2024/01/17 01:41:29;;;;;;;19.73;11.07;;;-1.90;96.40;;;;;;5009215;28;20247;-77
2024/01/17 01:43:55;;;;;;;18.77;11.07;;;-1.90;96.50;;;;;;5004924;28;20082;-77
2024/01/17 01:46:29;;;;;;;21.23;11.02;;;-1.90;96.60;;;;;;5004926;28;20030;-75
2024/01/17 01:48:55;;;;;;;20.33;11.10;;;-1.80;96.50;;;;;;5005815;28;20034;-76
2024/01/17 01:51:22;;;;;;;20.15;11.18;;;-1.80;96.40;;;;;;5005415;28;20046;-78
2024/01/17 01:53:51;;;;;;;19.38;10.73;;;-1.70;96.40;;;;;;5003805;28;20300;-74
2024/01/17 01:56:20;;;;;;;20.25;11.00;;;-1.80;96.10;;;;;;5005428;28;20076;-78
2024/01/17 01:58:48;;;;;;;25.35;13.00;;;-1.80;96.30;;;;;;5008744;28;20041;-75
2024/01/17 02:01:15;;;;;;;23.27;11.70;;;-1.70;96.40;;;;;;4989074;28;20037;-76
2024/01/17 02:03:43;;;;;;;20.90;12.05;;;-1.70;96.30;;;;;;5003952;28;20105;-76
2024/01/17 02:06:12;;;;;;;24.83;11.70;;;-1.70;96.20;;;;;;5005642;28;20053;-78
2024/01/17 02:08:37;;;;;;;21.40;11.13;;;-1.70;96.20;;;;;;5004806;28;20030;-76
2024/01/17 02:11:03;;;;;;;23.80;11.95;;;-1.70;96.30;;;;;;5005334;28;20041;-77
2024/01/17 02:13:29;;;;;;;25.90;12.45;;;-1.70;96.20;;;;;;5004728;28;20030;-77
2024/01/17 02:15:55;;;;;;;21.17;11.70;;;-1.70;96.30;;;;;;5008271;28;20046;-76
2024/01/17 02:18:21;;;;;;;21.48;12.35;;;-1.70;96.40;;;;;;5005338;28;20201;-77
2024/01/17 02:20:47;;;;;;;24.35;11.95;;;-1.60;96.20;;;;;;5005249;28;20030;-77
2024/01/17 02:23:26;;;;;;;23.38;11.40;;;-1.60;96.10;;;;;;5013344;28;20029;-78
2024/01/17 02:25:57;;;;;;;23.55;11.88;;;-1.50;96.10;;;;;;4990121;28;20069;-76
2024/01/17 02:28:25;;;;;;;24.05;11.70;;;-1.50;95.90;;;;;;4990688;28;20133;-75
2024/01/17 02:30:51;;;;;;;19.98;11.35;;;-1.50;96.00;;;;;;5006369;28;20073;-76
2024/01/17 02:33:18;;;;;;;19.48;11.43;;;-1.50;96.00;;;;;;4988497;28;20030;-76
2024/01/17 02:35:44;;;;;;;21.50;10.38;;;-1.40;96.10;;;;;;5004185;28;20054;-75
2024/01/17 02:38:10;;;;;;;19.50;11.38;;;-1.40;96.00;;;;;;4987472;28;20332;-78
2024/01/17 02:40:35;;;;;;;24.02;11.95;;;-1.40;96.20;;;;;;5004077;28;20038;-76
2024/01/17 02:43:01;;;;;;;19.83;11.10;;;-1.30;96.20;;;;;;4971349;28;20031;-76
2024/01/17 02:45:27;;;;;;;18.38;11.13;;;-1.30;96.00;;;;;;5004798;28;20037;-77
2024/01/17 02:47:53;;;;;;;19.98;11.45;;;-1.30;96.10;;;;;;4987246;28;20030;-76
2024/01/17 02:50:18;;;;;;;21.30;11.63;;;-1.30;96.10;;;;;;4991362;28;20056;-76
2024/01/17 02:52:45;;;;;;;23.30;12.02;;;-1.30;96.10;;;;;;5003805;28;20022;-76
2024/01/17 02:55:12;;;;;;;20.30;11.45;;;-1.30;96.30;;;;;;5004426;28;20030;-77
2024/01/17 02:57:40;;;;;;;18.98;10.93;;;-1.30;96.30;;;;;;4986264;28;20034;-78
2024/01/17 03:00:08;;;;;;;23.60;11.50;;;-1.30;96.40;;;;;;5004241;28;20062;-76
2024/01/17 03:02:34;;;;;;;19.15;11.63;;;-1.30;96.50;;;;;;5003793;28;20161;-76
2024/01/17 03:04:59;;;;;;;23.67;12.30;;;-1.20;96.50;;;;;;5004246;28;20390;-76
2024/01/17 03:07:25;;;;;;;21.38;11.40;;;-1.20;96.60;;;;;;5005790;28;20309;-76
2024/01/17 03:09:54;;;;;;;18.65;10.98;;;-1.20;96.90;;;;;;5006033;28;20318;-75
2024/01/17 03:12:25;;;;;;;23.58;11.88;;;-1.20;97.00;;;;;;5004299;28;20065;-78
2024/01/17 03:14:51;;;;;;;21.00;12.35;;;-1.30;97.50;;;;;;5002938;28;20220;-75
2024/01/17 03:17:16;;;;;;;22.30;12.20;;;-1.40;98.40;;;;;;5003577;28;20041;-76
2024/01/17 03:19:46;;;;;;;24.83;12.70;;;-1.40;99.00;;;;;;5001710;28;20030;-76
2024/01/17 03:22:16;;;;;;;24.35;13.18;;;-1.60;99.70;;;;;;5002261;28;20396;-75
2024/01/17 03:24:45;;;;;;;26.35;12.85;;;-1.60;99.90;;;;;;5001491;28;20194;-76
2024/01/17 03:27:12;;;;;;;23.98;14.07;;;-1.80;99.90;;;;;;5021482;28;20090;-77
2024/01/17 03:29:37;;;;;;;23.63;12.95;;;-1.80;99.90;;;;;;5022037;28;20046;-76
2024/01/17 03:32:03;;;;;;;24.40;13.63;;;-1.80;99.90;;;;;;5022740;28;20041;-76
2024/01/17 03:34:29;;;;;;;22.55;13.63;;;-1.80;99.90;;;;;;5022276;28;20085;-76
2024/01/17 03:36:55;;;;;;;25.38;13.38;;;-1.70;99.90;;;;;;5023051;28;20116;-76
2024/01/17 03:39:21;;;;;;;25.75;13.55;;;-1.70;99.90;;;;;;5022980;28;20072;-76
2024/01/17 03:41:46;;;;;;;23.88;13.25;;;-1.60;99.90;;;;;;5004892;28;20177;-76
2024/01/17 03:44:12;;;;;;;24.10;12.85;;;-1.60;99.90;;;;;;5009392;28;20026;-76
2024/01/17 03:46:38;;;;;;;21.92;12.95;;;-1.50;99.90;;;;;;5002722;28;20046;-76
2024/01/17 03:49:03;;;;;;;20.88;12.32;;;-1.50;99.90;;;;;;5002987;28;20336;-78
2024/01/17 03:51:29;;;;;;;21.88;12.50;;;-1.50;99.90;;;;;;5000915;28;20057;-77
2024/01/17 03:53:55;;;;;;;25.40;12.85;;;-1.40;99.90;;;;;;5003116;28;20221;-76
2024/01/17 03:56:20;;;;;;;23.70;13.35;;;-1.40;99.90;;;;;;5002908;28;20033;-76
2024/01/17 03:58:46;;;;;;;22.30;12.90;;;-1.40;99.90;;;;;;5002499;28;20277;-76
2024/01/17 04:01:13;;;;;;;23.50;13.52;;;-1.40;99.90;;;;;;5006459;28;20396;-76
2024/01/17 04:03:43;;;;;;;23.35;13.38;;;-1.30;99.90;;;;;;5002969;28;20044;-76
2024/01/17 04:06:09;;;;;;;22.75;12.95;;;-1.30;99.90;;;;;;5002666;28;20050;-76
2024/01/17 04:08:35;;;;;;;24.65;13.00;;;-1.30;99.90;;;;;;5001172;28;20202;-75
2024/01/17 04:11:01;;;;;;;23.95;13.25;;;-1.30;99.90;;;;;;5002845;28;20034;-77
2024/01/17 04:13:26;;;;;;;22.08;12.88;;;-1.30;99.90;;;;;;5002892;28;20320;-75
2024/01/17 04:15:52;;;;;;;23.33;13.25;;;-1.30;99.90;;;;;;5002737;28;20030;-75
2024/01/17 04:18:18;;;;;;;24.98;13.30;;;-1.20;99.90;;;;;;5006398;28;20021;-75
2024/01/17 04:20:46;;;;;;;25.10;13.27;;;-1.20;99.90;;;;;;5003657;28;20209;-75
2024/01/17 04:23:12;;;;;;;25.20;13.05;;;-1.20;99.90;;;;;;4993738;28;20308;-76
2024/01/17 04:25:38;;;;;;;23.52;13.48;;;-1.10;99.90;;;;;;5022306;28;20089;-75
2024/01/17 04:28:07;;;;;;;23.90;13.13;;;-1.10;99.90;;;;;;5022917;28;20363;-76
2024/01/17 04:30:33;;;;;;;20.50;12.40;;;-1.00;99.90;;;;;;5022476;28;20038;-75
2024/01/17 04:32:58;;;;;;;23.27;13.05;;;-0.90;99.90;;;;;;5022919;28;20317;-75
2024/01/17 04:35:24;;;;;;;22.95;13.35;;;-0.90;99.90;;;;;;5022800;28;20045;-76
2024/01/17 04:37:50;;;;;;;21.75;13.05;;;-0.90;99.90;;;;;;5002940;28;20025;-76
2024/01/17 04:40:16;;;;;;;24.27;12.55;;;-0.90;99.90;;;;;;5022536;28;20034;-77
2024/01/17 04:42:43;;;;;;;22.77;12.13;;;-0.90;99.90;;;;;;5020904;28;20033;-75
2024/01/17 04:45:10;;;;;;;21.25;12.65;;;-0.80;99.90;;;;;;5021189;28;20292;-76
2024/01/17 04:47:36;;;;;;;22.95;12.43;;;-0.70;99.90;;;;;;5021751;28;20022;-75
2024/01/17 04:50:02;;;;;;;22.02;13.55;;;-0.60;99.90;;;;;;5020800;28;20048;-75
2024/01/17 04:52:28;;;;;;;25.05;13.80;;;-0.70;99.90;;;;;;5021702;28;20060;-75
2024/01/17 04:54:57;;;;;;;24.77;14.00;;;-0.70;99.90;;;;;;4999045;28;20028;-75
2024/01/17 04:57:23;;;;;;;26.38;14.20;;;-0.80;99.90;;;;;;5024535;28;20034;-76
2024/01/17 04:59:49;;;;;;;29.27;14.65;;;-0.80;99.90;;;;;;5007572;28;20052;-74
2024/01/17 05:02:14;;;;;;;30.60;14.30;;;-0.80;99.90;;;;;;5025684;28;20021;-76
2024/01/17 05:04:40;;;;;;;29.30;15.25;;;-0.90;99.90;;;;;;5025331;28;20052;-77
2024/01/17 05:07:07;;;;;;;31.08;13.90;;;-1.00;99.90;;;;;;5010432;28;20093;-75
2024/01/17 05:09:34;;;;;;;26.25;14.18;;;-0.90;99.90;;;;;;5025264;28;20022;-75
2024/01/17 05:11:59;;;;;;;22.53;10.97;;;-0.90;99.90;;;;;;5020107;28;20021;-77
2024/01/17 05:14:25;;;;;;;23.65;13.13;;;-0.80;99.90;;;;;;5025848;28;20026;-77
2024/01/17 05:16:51;;;;;;;25.55;13.57;;;-0.70;99.90;;;;;;5007797;28;20335;-78
2024/01/17 05:19:17;;;;;;;22.10;13.13;;;-0.60;99.90;;;;;;5008189;28;20034;-77
2024/01/17 05:21:43;;;;;;;24.48;13.30;;;-0.50;99.90;;;;;;5023929;28;20036;-78
2024/01/17 05:24:08;;;;;;;24.38;12.77;;;-0.50;99.90;;;;;;5010390;28;20372;-77
2024/01/17 05:26:34;;;;;;;21.13;12.68;;;-0.40;99.90;;;;;;4988305;28;20212;-74
2024/01/17 05:29:00;;;;;;;24.40;13.23;;;-0.30;99.90;;;;;;5008901;28;20022;-75
2024/01/17 05:31:25;;;;;;;23.88;13.10;;;-0.30;99.90;;;;;;5006534;28;20027;-76
2024/01/17 05:33:51;;;;;;;26.60;14.20;;;-0.30;99.90;;;;;;5004124;28;20026;-76
2024/01/17 05:36:17;;;;;;;26.13;13.98;;;-0.30;99.90;;;;;;4988660;28;20028;-76
2024/01/17 05:38:42;;;;;;;24.85;13.75;;;-0.30;99.90;;;;;;5005447;28;20037;-78
2024/01/17 05:41:09;;;;;;;25.63;12.60;;;-0.30;99.90;;;;;;5004286;28;20329;-77
2024/01/17 05:43:34;;;;;;;24.65;14.45;;;-0.30;99.90;;;;;;5005093;28;20042;-77
2024/01/17 05:46:03;;;;;;;25.42;13.48;;;-0.20;99.90;;;;;;5005099;28;20018;-77
2024/01/17 05:48:32;;;;;;;24.48;12.57;;;-0.20;99.90;;;;;;4992539;28;20037;-79
2024/01/17 05:51:26;;;;;;;23.10;12.40;;;-0.10;99.90;;;;;;4991776;28;20097;-76
2024/01/17 05:53:51;;;;;;;25.63;13.18;;;0.00;99.90;;;;;;5004437;28;20053;-78
2024/01/17 05:56:17;;;;;;;21.88;13.10;;;0.00;99.90;;;;;;5004969;28;20037;-78
2024/01/17 05:58:49;;;;;;;26.08;12.75;;;-0.10;99.90;;;;;;4987382;28;20033;-80
2024/01/17 06:01:16;;;;;;;22.33;12.27;;;0.00;99.90;;;;;;4971639;28;20038;-78
2024/01/17 06:03:42;;;;;;;22.05;12.70;;;0.10;99.90;;;;;;4990380;28;20187;-76
2024/01/17 06:06:14;;;;;;;22.42;12.88;;;0.20;99.90;;;;;;5004908;28;20301;-78
2024/01/17 06:08:45;;;;;;;22.80;13.60;;;0.10;99.90;;;;;;5004119;28;20097;-77
2024/01/17 06:11:13;;;;;;;28.02;14.27;;;0.10;99.90;;;;;;4988386;28;20038;-77
2024/01/17 06:13:39;;;;;;;29.30;15.52;;;0.10;99.90;;;;;;5003955;28;20033;-77
2024/01/17 06:16:05;;;;;;;28.15;15.05;;;0.10;99.90;;;;;;5004874;28;20038;-77
2024/01/17 06:18:30;;;;;;;27.67;14.95;;;0.10;99.90;;;;;;5002130;28;20301;-75
2024/01/17 06:20:56;;;;;;;29.58;15.05;;;0.10;99.90;;;;;;5006117;28;20205;-76
2024/01/17 06:23:38;;;;;;;27.13;14.85;;;0.20;99.90;;;;;;4996193;28;20030;-77
2024/01/17 06:26:56;;;;;;;28.33;15.20;;;0.20;99.90;;;;;;5008740;28;20068;-77
2024/01/17 06:29:51;;;;;;;26.52;15.02;;;0.20;99.90;;;;;;5023860;28;20029;-77
2024/01/17 06:32:37;;;;;;;26.00;14.10;;;0.20;99.90;;;;;;5012882;28;20046;-76
2024/01/17 06:35:15;;;;;;;25.48;13.35;;;0.00;99.90;;;;;;5023660;28;20030;-76
2024/01/17 06:37:55;;;;;;;27.17;14.27;;;0.10;99.90;;;;;;5021149;28;20101;-76
2024/01/17 06:40:21;;;;;;;30.37;14.83;;;0.20;99.90;;;;;;5004572;28;20212;-76
2024/01/17 06:42:56;;;;;;;26.00;14.80;;;0.30;99.90;;;;;;4986183;28;20109;-78
2024/01/17 06:45:26;;;;;;;23.83;13.10;;;0.30;99.90;;;;;;5004350;28;20041;-77
2024/01/17 06:47:57;;;;;;;25.42;14.38;;;0.30;99.90;;;;;;5000113;28;20088;-76
2024/01/17 06:50:47;;;;;;;27.23;13.95;;;0.30;99.90;;;;;;5009093;28;20398;-77
2024/01/17 06:53:15;;;;;;;28.20;14.52;;;0.30;99.90;;;;;;5006200;28;20057;-76
2024/01/17 06:55:44;;;;;;;30.30;14.80;;;0.30;99.90;;;;;;5018514;28;20093;-77
2024/01/17 06:58:10;;;;;;;27.42;14.00;;;0.20;99.90;;;;;;5004139;28;20049;-76
2024/01/17 07:00:37;;;;;;;28.95;14.90;;;0.30;99.90;;;;;;4985701;28;20077;-77
2024/01/17 07:03:03;;;;;;;30.85;13.98;;;0.30;99.90;;;;;;5003594;28;20030;-77
2024/01/17 07:05:29;;;;;;;25.95;13.93;;;0.40;99.90;;;;;;5002818;28;20022;-77
2024/01/17 07:07:58;;;;;;;28.30;14.38;;;0.40;99.90;;;;;;5003509;28;20070;-77
2024/01/17 07:10:24;;;;;;;26.95;15.32;;;0.40;99.90;;;;;;5003339;28;20034;-77
2024/01/17 07:12:50;;;;;;;28.73;14.68;;;0.50;99.90;;;;;;5005992;28;20022;-77
2024/01/17 07:15:17;;;;;;;23.02;14.25;;;0.50;99.90;;;;;;5000766;28;20021;-77
2024/01/17 07:17:45;;;;;;;28.85;15.98;;;0.50;99.90;;;;;;5006389;28;20190;-77
2024/01/17 07:20:12;;;;;;;27.27;14.68;;;0.50;99.90;;;;;;5003389;28;20053;-77
2024/01/17 07:22:41;;;;;;;22.58;14.18;;;0.60;99.90;;;;;;5021147;28;20084;-75
2024/01/17 07:25:10;;;;;;;25.92;13.70;;;0.60;99.90;;;;;;5005673;28;20030;-76
2024/01/17 07:27:51;;;;;;;50.53;18.17;;;0.70;99.90;;;;;;5003834;28;20030;-77
2024/01/17 07:30:35;;;;;;;25.20;14.25;;;0.70;99.90;;;;;;5003309;28;20246;-77
2024/01/17 07:33:01;;;;;;;26.08;14.73;;;0.80;99.90;;;;;;5022113;28;20102;-76
2024/01/17 07:35:29;;;;;;;27.63;15.25;;;0.70;99.90;;;;;;5005213;28;20038;-75
2024/01/17 07:38:27;;;;;;;24.02;14.00;;;0.80;99.90;;;;;;4989385;28;20045;-75
2024/01/17 07:41:05;;;;;;;25.75;14.18;;;0.90;99.90;;;;;;4946175;29;20102;-74
2024/01/17 07:43:40;;;;;;;28.50;14.30;;;1.00;99.90;;;;;;4962389;29;20047;-74
2024/01/17 07:46:07;;;;;;;27.63;13.88;;;1.00;99.90;;;;;;4926780;29;20092;-75
2024/01/17 07:48:33;;;;;;;30.20;17.73;;;1.10;99.90;;;;;;4919003;28;20064;-75
2024/01/17 07:51:57;;;;;;;28.67;14.82;;;1.20;99.90;;;;;;4965883;28;20050;-76
2024/01/17 07:55:03;;;;;;;28.45;14.13;;;1.30;99.90;;;;;;4965701;28;20110;-77
2024/01/17 07:57:58;;;;;;;26.98;12.82;;;1.30;99.90;;;;;;4886394;29;20032;-77
2024/01/17 08:00:26;;;;;;;25.77;13.52;;;1.30;99.90;;;;;;4884134;29;20073;-77
2024/01/17 08:03:26;;;;;;;23.27;12.90;;;1.40;99.90;;;;;;4863775;29;20094;-76
2024/01/17 08:05:52;;;;;;;23.02;13.13;;;1.40;99.90;;;;;;4867367;29;20134;-75
2024/01/17 08:08:21;;;;;;;25.80;13.45;;;1.50;99.90;;;;;;4867674;29;20092;-76
2024/01/17 08:10:58;;;;;;;30.55;15.23;;;1.60;99.90;;;;;;4851630;29;20029;-75
2024/01/17 08:13:24;;;;;;;22.92;13.82;;;1.60;99.90;;;;;;4867412;29;20208;-75
2024/01/17 08:16:05;;;;;;;24.08;12.65;;;1.70;99.90;;;;;;4875711;29;20115;-75
2024/01/17 08:18:36;;;;;;;25.08;13.20;;;1.70;99.90;;;;;;4901101;29;20040;-76
2024/01/17 08:21:12;;;;;;;24.52;14.20;;;1.70;99.90;;;;;;4908236;29;20362;-76
2024/01/17 08:23:38;;;;;;;24.35;13.95;;;1.70;99.90;;;;;;4914988;29;20081;-76
2024/01/17 08:26:12;;;;;;;29.80;14.73;;;1.70;99.90;;;;;;4927021;29;20035;-77
2024/01/17 08:28:37;;;;;;;29.13;13.88;;;1.70;99.90;;;;;;4942239;29;20210;-75
2024/01/17 08:31:05;;;;;;;25.20;13.85;;;1.70;99.90;;;;;;4928384;29;20096;-77
2024/01/17 08:33:42;;;;;;;24.23;13.65;;;1.70;99.90;;;;;;4943360;28;20108;-75
2024/01/17 08:36:26;;;;;;;26.95;14.65;;;1.70;99.90;;;;;;5004695;28;20297;-78
2024/01/17 08:38:53;;;;;;;26.42;13.32;;;1.70;99.90;;;;;;4988349;28;20034;-76
2024/01/17 08:41:22;;;;;;;30.20;15.10;;;1.70;99.90;;;;;;5021332;28;20293;-76
2024/01/17 08:43:47;;;;;;;27.83;14.63;;;1.70;99.90;;;;;;5005767;28;20101;-76
2024/01/17 08:46:14;;;;;;;26.23;14.73;;;1.80;99.90;;;;;;4972485;28;20248;-76
2024/01/17 08:48:42;;;;;;;25.85;14.52;;;1.80;99.90;;;;;;5020760;28;20049;-77
2024/01/17 08:51:08;;;;;;;26.60;14.27;;;1.80;99.90;;;;;;5006854;28;20054;-77
2024/01/17 08:53:49;;;;;;;27.05;14.57;;;1.90;99.90;;;;;;5003958;28;20029;-76
2024/01/17 08:56:35;;;;;;;26.02;14.02;;;1.90;99.90;;;;;;5005903;28;20109;-77
2024/01/17 08:59:07;;;;;;;24.98;14.52;;;1.90;99.90;;;;;;5015712;28;20030;-77
2024/01/17 09:04:43;;;;;;;28.52;13.85;;;2.00;99.90;;;;;;5007764;28;20220;-79
2024/01/17 09:07:09;;;;;;;25.05;14.50;;;2.10;99.90;;;;;;5025397;28;20034;-77
2024/01/17 09:09:54;;;;;;;26.75;14.43;;;2.10;99.90;;;;;;4987644;28;20284;-77
2024/01/17 09:18:17;;;;;;;31.75;14.82;;;2.20;99.90;;;;;;5005765;28;20038;-77
2024/01/17 09:20:52;;;;;;;27.27;13.52;;;2.30;99.90;;;;;;4987222;28;20101;-76
2024/01/17 09:23:43;;;;;;;24.88;13.48;;;2.30;99.90;;;;;;5004119;28;20076;-77
2024/01/17 09:26:09;;;;;;;25.77;13.95;;;2.30;99.90;;;;;;5008813;28;20304;-77
2024/01/17 09:28:38;;;;;;;25.33;13.23;;;2.30;99.90;;;;;;5005030;28;20030;-79
2024/01/17 09:31:06;;;;;;;24.40;14.15;;;2.30;99.90;;;;;;5005783;28;20030;-78
2024/01/17 09:33:37;;;;;;;;;;;2.20;99.90;;;;;;5005249;28;20038;-78
2024/01/17 09:36:05;;;;;;;25.17;13.52;;;2.30;99.90;;;;;;5000275;28;19905;-77
2024/01/17 09:38:31;;;;;;;28.42;14.82;;;2.30;99.90;;;;;;5026824;28;20017;-78
2024/01/17 09:41:04;;;;;;;25.20;13.20;;;2.40;99.90;;;;;;5044712;28;20040;-78
2024/01/17 09:43:48;;;;;;;24.20;12.60;;;2.40;99.90;;;;;;4982434;28;20105;-76
2024/01/17 09:46:18;;;;;;;24.38;13.18;;;2.50;99.90;;;;;;4987435;28;20052;-76
2024/01/17 09:48:49;;;;;;;22.08;12.38;;;2.60;99.90;;;;;;5003328;28;20109;-77
2024/01/17 09:51:41;;;;;;;28.63;14.07;;;2.70;99.90;;;;;;5003810;28;20048;-78
2024/01/17 09:54:19;;;;;;;19.00;11.38;;;2.80;99.90;;;;;;5002017;28;20109;-78
2024/01/17 09:56:58;;;;;;;22.92;11.80;;;2.80;99.90;;;;;;5004294;28;20057;-77
2024/01/17 10:02:58;;;;;;;21.63;11.70;;;2.90;99.90;;;;;;5010885;28;20050;-76
2024/01/17 10:05:37;;;;;;;19.05;10.77;;;2.90;99.90;;;;;;5024297;28;20022;-75
2024/01/17 10:08:19;;;;;;;20.50;11.43;;;3.00;99.90;;;;;;5024100;28;20034;-76
2024/01/17 10:10:44;;;;;;;18.95;10.82;;;3.00;99.90;;;;;;5023733;28;20041;-77
2024/01/17 10:13:22;;;;;;;20.65;11.93;;;3.00;99.90;;;;;;5024205;28;20038;-76
2024/01/17 10:15:53;;;;;;;18.33;11.05;;;3.00;99.90;;;;;;5023829;28;20229;-76
2024/01/17 10:18:28;;;;;;;17.77;10.75;;;3.10;99.90;;;;;;5021639;28;20068;-77
2024/01/17 10:20:54;;;;;;;18.00;9.02;;;3.20;99.90;;;;;;4987415;28;20077;-77
2024/01/17 10:23:20;;;;;;;15.30;9.63;;;3.30;99.90;;;;;;5016001;28;20034;-77
2024/01/17 10:25:46;;;;;;;16.10;8.75;;;3.40;99.90;;;;;;5023537;28;20078;-76
2024/01/17 10:28:11;;;;;;;13.50;8.02;;;3.40;99.90;;;;;;5024096;28;20256;-77
2024/01/17 10:30:50;;;;;;;15.27;8.48;;;3.40;99.90;;;;;;4989628;28;20029;-77
2024/01/17 10:33:16;;;;;;;16.70;8.75;;;3.50;99.90;;;;;;5023757;28;20065;-78
2024/01/17 10:36:07;;;;;;;21.05;9.68;;;3.60;99.90;;;;;;5006933;28;20045;-76
2024/01/17 10:38:36;;;;;;;15.57;7.85;;;3.60;99.90;;;;;;5021910;28;20030;-74
2024/01/17 10:41:11;;;;;;;13.10;7.47;;;3.70;99.90;;;;;;5010014;28;20034;-76
2024/01/17 10:44:14;;;;;;;15.85;7.82;;;3.80;99.90;;;;;;5003552;28;20044;-77
2024/01/17 10:46:40;;;;;;;15.95;7.90;;;3.80;99.90;;;;;;5003357;28;20045;-77
2024/01/17 10:49:15;;;;;;;15.10;7.55;;;3.90;99.90;;;;;;5004224;28;20026;-77
2024/01/17 10:52:47;;;;;;;;;;;;;;;;;;;;;
2024/01/17 10:59:59;;;;;;;14.20;7.57;;;4.00;99.90;;;;;;4953509;29;20354;-76
2024/01/17 11:02:38;;;;;;;12.23;6.50;;;4.00;99.90;;;;;;4975075;28;20162;-78
2024/01/17 11:05:56;;;;;;;12.77;6.65;;;4.00;99.90;;;;;;5003665;28;20093;-77
2024/01/17 11:08:38;;;;;;;13.45;6.72;;;4.10;99.90;;;;;;5007122;28;20085;-77
2024/01/17 11:11:09;;;;;;;10.52;6.07;;;4.10;99.90;;;;;;5021323;28;20037;-76
2024/01/17 11:13:39;;;;;;;11.38;6.07;;;4.00;99.90;;;;;;5021501;28;20312;-78
2024/01/17 11:16:18;;;;;;;12.07;6.90;;;4.10;99.90;;;;;;5023743;28;20687;-76
2024/01/17 11:18:54;;;;;;;12.73;6.45;;;4.10;99.90;;;;;;5005882;28;20038;-77
2024/01/17 11:21:37;;;;;;;12.57;6.93;;;4.20;99.90;;;;;;5023163;28;20034;-76
2024/01/17 11:24:55;;;;;;;12.55;6.85;;;4.20;99.90;;;;;;5024701;28;20049;-77
2024/01/17 11:28:38;;;;;;;12.23;7.38;;;4.20;99.90;;;;;;4930423;29;20097;-76
2024/01/17 11:31:53;;;;;;;14.05;6.78;;;4.20;99.90;;;;;;4926538;29;20329;-77
2024/01/17 11:34:19;;;;;;;12.07;6.45;;;4.30;99.90;;;;;;4943131;29;20054;-74
2024/01/17 11:36:52;;;;;;;16.15;7.65;;;4.30;99.90;;;;;;4910985;28;20242;-75
2024/01/17 11:39:19;;;;;;;12.73;6.75;;;4.30;99.90;;;;;;5001399;28;20050;-75
2024/01/17 11:41:48;;;;;;;14.73;6.95;;;4.30;99.90;;;;;;5002391;28;20397;-74
2024/01/17 11:44:22;;;;;;;11.68;6.05;;;4.30;99.90;;;;;;5002816;28;20034;-73
2024/01/17 11:49:48;;;;;;;11.63;6.40;;;4.40;99.90;;;;;;4998601;28;20113;-73
2024/01/17 11:52:34;;;;;;;9.75;5.45;;;4.50;99.90;;;;;;5002131;28;20046;-72
2024/01/17 11:55:01;;;;;;;8.18;5.50;;;4.50;99.90;;;;;;4985132;28;20041;-72
2024/01/17 11:57:42;;;;;;;11.38;6.53;;;4.60;99.90;;;;;;5002771;28;20042;-72
2024/01/17 12:00:10;;;;;;;10.57;5.78;;;4.70;99.90;;;;;;5002756;28;20042;-71
2024/01/17 12:02:39;;;;;;;11.73;5.97;;;4.80;99.90;;;;;;5007929;28;20320;-73
2024/01/17 12:05:14;;;;;;;8.90;5.40;;;4.80;99.90;;;;;;5008085;28;20135;-73
2024/01/17 12:07:42;;;;;;;8.68;5.25;;;4.90;99.90;;;;;;5002198;28;20256;-76
2024/01/17 12:10:24;;;;;;;9.73;5.45;;;4.90;99.90;;;;;;5015318;28;20042;-75
2024/01/17 12:13:01;;;;;;;9.75;5.07;;;5.00;99.90;;;;;;4988096;28;20038;-76
2024/01/17 12:15:27;;;;;;;9.75;5.43;;;5.10;99.90;;;;;;5005192;28;20249;-76
2024/01/17 12:18:03;;;;;;;7.50;4.50;;;5.20;99.90;;;;;;5007085;28;20041;-78
2024/01/17 12:20:31;;;;;;;8.13;4.72;;;5.20;99.90;;;;;;5001779;28;20069;-78
2024/01/17 12:23:30;;;;;;;9.13;4.80;;;5.30;99.90;;;;;;5013276;28;20028;-77
2024/01/17 12:26:00;;;;;;;9.10;4.18;;;5.40;99.90;;;;;;5024551;28;20326;-78
2024/01/17 12:28:36;;;;;;;6.97;3.92;;;5.60;99.90;;;;;;5042456;28;20541;-76
2024/01/17 12:31:06;;;;;;;6.55;3.97;;;5.70;99.90;;;;;;5014520;28;20030;-79
2024/01/17 12:33:45;;;;;;;9.73;4.10;;;5.60;99.90;;;;;;5012354;28;20037;-78
2024/01/17 12:36:13;;;;;;;8.10;4.22;;;5.60;99.90;;;;;;5020190;28;20018;-77
2024/01/17 12:38:39;;;;;;;8.45;4.28;;;5.60;99.90;;;;;;5002007;28;20225;-75
2024/01/17 12:41:10;;;;;;;7.03;4.25;;;5.70;99.90;;;;;;5041927;28;20022;-79
2024/01/17 12:43:39;;;;;;;6.10;3.65;;;5.70;99.90;;;;;;5041112;28;20029;-76
2024/01/17 12:46:06;;;;;;;7.50;3.60;;;5.80;99.90;;;;;;5025474;28;20246;-75
2024/01/17 12:49:01;;;;;;;8.60;4.25;;;5.90;99.90;;;;;;5012829;28;20058;-77
2024/01/17 12:51:33;;;;;;;7.97;3.90;;;5.90;99.90;;;;;;5000626;28;20109;-77
2024/01/17 12:54:04;;;;;;;9.85;4.53;;;5.90;99.90;;;;;;5005314;28;20387;-76
2024/01/17 12:56:39;;;;;;;7.55;4.15;;;6.10;99.90;;;;;;5005197;28;20041;-77
2024/01/17 12:59:09;;;;;;;8.07;3.77;;;6.40;99.90;;;;;;5004151;28;20053;-76
2024/01/17 13:01:44;;;;;;;6.22;3.90;;;6.70;99.90;;;;;;5003818;28;20025;-80
2024/01/17 13:04:17;;;;;;;9.93;4.22;;;7.00;99.90;;;;;;5020983;28;20072;-75
2024/01/17 13:06:49;;;;;;;10.57;4.28;;;7.20;99.90;;;;;;4998725;28;20061;-76
2024/01/17 13:09:20;;;;;;;8.18;3.72;;;7.20;99.90;;;;;;5015002;28;20038;-76
2024/01/17 13:11:51;;;;;;;7.88;4.00;;;7.20;99.90;;;;;;5001278;28;20038;-75
2024/01/17 13:14:17;;;;;;;6.25;3.85;;;7.10;99.90;;;;;;5002072;28;20317;-77
2024/01/17 13:16:43;;;;;;;7.75;3.67;;;7.30;99.90;;;;;;4993838;28;20017;-77